sensor_id;sensor_type;location;lat;lon;timestamp;P1;durP1;ratioP1;P2;durP2;ratioP2
75216;SDS011;63800;51.972;5.682;2023-06-01T00:02:25;14.23;;;7.95;;
75216;SDS011;63800;51.972;5.682;2023-06-01T00:04:51;12.35;;;7.70;;
75216;SDS011;63800;51.972;5.682;2023-06-01T00:07:17;12.25;;;7.20;;
75216;SDS011;63800;51.972;5.682;2023-06-01T00:09:42;11.63;;;7.63;;
75216;SDS011;63800;51.972;5.682;2023-06-01T00:12:08;13.50;;;7.80;;
75216;SDS011;63800;51.972;5.682;2023-06-01T00:14:34;12.73;;;6.90;;
75216;SDS011;63800;51.972;5.682;2023-06-01T00:17:00;10.98;;;7.05;;
75216;SDS011;63800;51.972;5.682;2023-06-01T00:19:29;11.23;;;6.63;;
75216;SDS011;63800;51.972;5.682;2023-06-01T00:21:54;11.63;;;7.05;;
75216;SDS011;63800;51.972;5.682;2023-06-01T00:24:20;10.45;;;6.07;;
75216;SDS011;63800;51.972;5.682;2023-06-01T00:26:46;9.23;;;5.80;;
75216;SDS011;63800;51.972;5.682;2023-06-01T00:29:12;13.43;;;6.32;;
75216;SDS011;63800;51.972;5.682;2023-06-01T00:31:38;10.82;;;6.47;;
75216;SDS011;63800;51.972;5.682;2023-06-01T00:34:03;12.30;;;6.32;;
75216;SDS011;63800;51.972;5.682;2023-06-01T00:36:29;11.65;;;5.57;;
75216;SDS011;63800;51.972;5.682;2023-06-01T00:38:56;9.98;;;5.95;;
75216;SDS011;63800;51.972;5.682;2023-06-01T00:41:26;9.75;;;5.68;;
75216;SDS011;63800;51.972;5.682;2023-06-01T00:43:52;10.65;;;5.65;;
75216;SDS011;63800;51.972;5.682;2023-06-01T00:46:18;10.32;;;6.05;;
75216;SDS011;63800;51.972;5.682;2023-06-01T00:48:43;10.98;;;5.97;;
75216;SDS011;63800;51.972;5.682;2023-06-01T00:51:09;10.70;;;5.95;;
75216;SDS011;63800;51.972;5.682;2023-06-01T00:53:36;9.13;;;6.40;;
75216;SDS011;63800;51.972;5.682;2023-06-01T00:56:02;11.07;;;5.80;;
75216;SDS011;63800;51.972;5.682;2023-06-01T00:58:27;12.75;;;7.00;;
75216;SDS011;63800;51.972;5.682;2023-06-01T01:00:53;10.50;;;6.20;;
75216;SDS011;63800;51.972;5.682;2023-06-01T01:03:19;12.32;;;6.20;;
75216;SDS011;63800;51.972;5.682;2023-06-01T01:05:46;9.52;;;5.82;;
75216;SDS011;63800;51.972;5.682;2023-06-01T01:10:53;12.77;;;5.80;;
75216;SDS011;63800;51.972;5.682;2023-06-01T01:13:36;11.20;;;6.22;;
75216;SDS011;63800;51.972;5.682;2023-06-01T01:21:29;9.95;;;5.85;;
75216;SDS011;63800;51.972;5.682;2023-06-01T01:27:03;10.73;;;5.35;;
75216;SDS011;63800;51.972;5.682;2023-06-01T01:29:42;11.70;;;5.80;;
75216;SDS011;63800;51.972;5.682;2023-06-01T01:32:10;9.82;;;5.28;;
75216;SDS011;63800;51.972;5.682;2023-06-01T01:34:37;14.73;;;5.85;;
75216;SDS011;63800;51.972;5.682;2023-06-01T01:37:05;10.15;;;5.78;;
75216;SDS011;63800;51.972;5.682;2023-06-01T01:39:31;12.07;;;5.93;;
75216;SDS011;63800;51.972;5.682;2023-06-01T01:41:56;9.57;;;5.55;;
75216;SDS011;63800;51.972;5.682;2023-06-01T01:44:21;11.70;;;5.97;;
75216;SDS011;63800;51.972;5.682;2023-06-01T01:49:41;9.25;;;5.53;;
75216;SDS011;63800;51.972;5.682;2023-06-01T01:52:10;13.73;;;6.68;;
75216;SDS011;63800;51.972;5.682;2023-06-01T01:54:49;10.88;;;5.97;;
75216;SDS011;63800;51.972;5.682;2023-06-01T01:57:16;9.90;;;5.82;;
75216;SDS011;63800;51.972;5.682;2023-06-01T01:59:43;12.63;;;6.50;;
75216;SDS011;63800;51.972;5.682;2023-06-01T02:02:10;11.05;;;6.10;;
75216;SDS011;63800;51.972;5.682;2023-06-01T02:04:42;15.05;;;6.63;;
75216;SDS011;63800;51.972;5.682;2023-06-01T02:07:08;9.38;;;5.50;;
75216;SDS011;63800;51.972;5.682;2023-06-01T02:09:34;12.57;;;6.10;;
75216;SDS011;63800;51.972;5.682;2023-06-01T02:12:00;10.27;;;5.88;;
75216;SDS011;63800;51.972;5.682;2023-06-01T02:14:27;9.80;;;5.75;;
75216;SDS011;63800;51.972;5.682;2023-06-01T02:16:52;10.95;;;5.78;;
75216;SDS011;63800;51.972;5.682;2023-06-01T02:19:18;11.85;;;5.85;;
75216;SDS011;63800;51.972;5.682;2023-06-01T02:21:44;10.27;;;5.88;;
75216;SDS011;63800;51.972;5.682;2023-06-01T02:24:09;9.95;;;5.70;;
75216;SDS011;63800;51.972;5.682;2023-06-01T02:26:35;9.32;;;5.65;;
75216;SDS011;63800;51.972;5.682;2023-06-01T02:29:01;11.88;;;6.22;;
75216;SDS011;63800;51.972;5.682;2023-06-01T02:31:33;9.97;;;5.90;;
75216;SDS011;63800;51.972;5.682;2023-06-01T02:34:02;11.02;;;5.63;;
75216;SDS011;63800;51.972;5.682;2023-06-01T02:36:28;12.00;;;5.97;;
75216;SDS011;63800;51.972;5.682;2023-06-01T02:38:54;11.48;;;6.07;;
75216;SDS011;63800;51.972;5.682;2023-06-01T02:41:20;10.00;;;5.85;;
75216;SDS011;63800;51.972;5.682;2023-06-01T02:43:46;11.60;;;5.93;;
75216;SDS011;63800;51.972;5.682;2023-06-01T02:46:12;10.30;;;5.97;;
75216;SDS011;63800;51.972;5.682;2023-06-01T02:48:37;10.25;;;6.00;;
75216;SDS011;63800;51.972;5.682;2023-06-01T02:51:03;12.30;;;6.25;;
75216;SDS011;63800;51.972;5.682;2023-06-01T02:53:28;9.90;;;5.85;;
75216;SDS011;63800;51.972;5.682;2023-06-01T02:55:54;8.35;;;5.70;;
75216;SDS011;63800;51.972;5.682;2023-06-01T02:58:20;11.20;;;6.20;;
75216;SDS011;63800;51.972;5.682;2023-06-01T03:00:46;11.57;;;6.55;;
75216;SDS011;63800;51.972;5.682;2023-06-01T03:03:12;12.13;;;7.00;;
75216;SDS011;63800;51.972;5.682;2023-06-01T03:05:38;10.32;;;5.20;;
75216;SDS011;63800;51.972;5.682;2023-06-01T03:08:03;12.43;;;6.40;;
75216;SDS011;63800;51.972;5.682;2023-06-01T03:10:31;9.32;;;5.85;;
75216;SDS011;63800;51.972;5.682;2023-06-01T03:12:56;8.18;;;5.63;;
75216;SDS011;63800;51.972;5.682;2023-06-01T03:15:22;11.43;;;5.75;;
75216;SDS011;63800;51.972;5.682;2023-06-01T03:17:47;11.60;;;5.95;;
75216;SDS011;63800;51.972;5.682;2023-06-01T03:20:12;9.45;;;5.72;;
75216;SDS011;63800;51.972;5.682;2023-06-01T03:22:44;9.93;;;5.78;;
75216;SDS011;63800;51.972;5.682;2023-06-01T03:25:10;11.45;;;6.20;;
75216;SDS011;63800;51.972;5.682;2023-06-01T03:27:38;10.18;;;6.07;;
75216;SDS011;63800;51.972;5.682;2023-06-01T03:30:07;14.85;;;6.35;;
75216;SDS011;63800;51.972;5.682;2023-06-01T03:32:40;12.90;;;6.47;;
75216;SDS011;63800;51.972;5.682;2023-06-01T03:35:06;12.40;;;6.00;;
75216;SDS011;63800;51.972;5.682;2023-06-01T03:37:35;10.18;;;6.25;;
75216;SDS011;63800;51.972;5.682;2023-06-01T03:40:07;13.80;;;6.45;;
75216;SDS011;63800;51.972;5.682;2023-06-01T03:42:37;10.60;;;5.97;;
75216;SDS011;63800;51.972;5.682;2023-06-01T03:45:07;9.18;;;5.85;;
75216;SDS011;63800;51.972;5.682;2023-06-01T03:47:33;11.45;;;5.78;;
75216;SDS011;63800;51.972;5.682;2023-06-01T03:49:59;8.90;;;5.70;;
75216;SDS011;63800;51.972;5.682;2023-06-01T03:52:26;11.18;;;6.38;;
75216;SDS011;63800;51.972;5.682;2023-06-01T03:54:52;10.65;;;5.90;;
75216;SDS011;63800;51.972;5.682;2023-06-01T03:57:18;9.93;;;5.28;;
75216;SDS011;63800;51.972;5.682;2023-06-01T03:59:43;10.20;;;5.55;;
75216;SDS011;63800;51.972;5.682;2023-06-01T04:02:08;10.25;;;5.80;;
75216;SDS011;63800;51.972;5.682;2023-06-01T04:04:34;10.77;;;6.10;;
75216;SDS011;63800;51.972;5.682;2023-06-01T04:07:00;12.27;;;6.00;;
75216;SDS011;63800;51.972;5.682;2023-06-01T04:09:28;11.70;;;5.90;;
75216;SDS011;63800;51.972;5.682;2023-06-01T04:11:54;8.80;;;5.95;;
75216;SDS011;63800;51.972;5.682;2023-06-01T04:14:20;12.73;;;6.05;;
75216;SDS011;63800;51.972;5.682;2023-06-01T04:16:45;11.93;;;5.78;;
75216;SDS011;63800;51.972;5.682;2023-06-01T04:19:11;10.43;;;6.20;;
75216;SDS011;63800;51.972;5.682;2023-06-01T04:21:37;11.52;;;6.10;;
75216;SDS011;63800;51.972;5.682;2023-06-01T04:24:02;10.35;;;5.88;;
75216;SDS011;63800;51.972;5.682;2023-06-01T04:26:28;10.90;;;5.90;;
75216;SDS011;63800;51.972;5.682;2023-06-01T04:28:56;11.02;;;5.88;;
75216;SDS011;63800;51.972;5.682;2023-06-01T04:31:22;9.45;;;6.20;;
75216;SDS011;63800;51.972;5.682;2023-06-01T04:33:48;12.48;;;6.28;;
75216;SDS011;63800;51.972;5.682;2023-06-01T04:36:21;13.48;;;5.55;;
75216;SDS011;63800;51.972;5.682;2023-06-01T04:38:48;11.75;;;5.93;;
75216;SDS011;63800;51.972;5.682;2023-06-01T04:41:21;11.68;;;6.45;;
75216;SDS011;63800;51.972;5.682;2023-06-01T04:43:47;10.00;;;6.00;;
75216;SDS011;63800;51.972;5.682;2023-06-01T04:48:50;14.00;;;6.68;;
75216;SDS011;63800;51.972;5.682;2023-06-01T04:51:22;11.27;;;5.97;;
75216;SDS011;63800;51.972;5.682;2023-06-01T04:53:49;12.25;;;6.60;;
75216;SDS011;63800;51.972;5.682;2023-06-01T04:56:16;13.02;;;6.50;;
75216;SDS011;63800;51.972;5.682;2023-06-01T04:58:55;10.32;;;5.53;;
75216;SDS011;63800;51.972;5.682;2023-06-01T05:01:21;10.63;;;6.22;;
75216;SDS011;63800;51.972;5.682;2023-06-01T05:03:50;13.32;;;5.78;;
75216;SDS011;63800;51.972;5.682;2023-06-01T05:06:16;11.88;;;5.85;;
75216;SDS011;63800;51.972;5.682;2023-06-01T05:08:42;11.02;;;5.97;;
75216;SDS011;63800;51.972;5.682;2023-06-01T05:11:08;11.02;;;5.88;;
75216;SDS011;63800;51.972;5.682;2023-06-01T05:13:34;11.63;;;5.90;;
75216;SDS011;63800;51.972;5.682;2023-06-01T05:16:01;11.95;;;6.05;;
75216;SDS011;63800;51.972;5.682;2023-06-01T05:18:27;10.57;;;6.22;;
75216;SDS011;63800;51.972;5.682;2023-06-01T05:20:53;10.93;;;5.57;;
75216;SDS011;63800;51.972;5.682;2023-06-01T05:23:18;11.75;;;5.95;;
75216;SDS011;63800;51.972;5.682;2023-06-01T05:25:44;11.88;;;6.28;;
75216;SDS011;63800;51.972;5.682;2023-06-01T05:28:09;10.00;;;5.45;;
75216;SDS011;63800;51.972;5.682;2023-06-01T05:30:35;12.68;;;6.05;;
75216;SDS011;63800;51.972;5.682;2023-06-01T05:33:00;13.13;;;6.20;;
75216;SDS011;63800;51.972;5.682;2023-06-01T05:35:26;9.45;;;5.55;;
75216;SDS011;63800;51.972;5.682;2023-06-01T05:37:52;11.65;;;6.32;;
75216;SDS011;63800;51.972;5.682;2023-06-01T05:40:17;10.48;;;6.35;;
75216;SDS011;63800;51.972;5.682;2023-06-01T05:42:42;10.80;;;6.40;;
75216;SDS011;63800;51.972;5.682;2023-06-01T05:45:09;11.50;;;6.00;;
75216;SDS011;63800;51.972;5.682;2023-06-01T05:47:34;11.10;;;5.97;;
75216;SDS011;63800;51.972;5.682;2023-06-01T05:50:00;10.52;;;6.30;;
75216;SDS011;63800;51.972;5.682;2023-06-01T05:52:25;12.07;;;6.70;;
75216;SDS011;63800;51.972;5.682;2023-06-01T05:54:51;10.77;;;6.05;;
75216;SDS011;63800;51.972;5.682;2023-06-01T05:57:18;12.55;;;5.95;;
75216;SDS011;63800;51.972;5.682;2023-06-01T05:59:44;20.77;;;7.85;;
75216;SDS011;63800;51.972;5.682;2023-06-01T06:02:11;11.55;;;6.72;;
75216;SDS011;63800;51.972;5.682;2023-06-01T06:04:37;9.88;;;6.20;;
75216;SDS011;63800;51.972;5.682;2023-06-01T06:07:03;13.38;;;7.25;;
75216;SDS011;63800;51.972;5.682;2023-06-01T06:09:28;12.05;;;6.90;;
75216;SDS011;63800;51.972;5.682;2023-06-01T06:11:54;12.65;;;6.40;;
75216;SDS011;63800;51.972;5.682;2023-06-01T06:14:19;10.63;;;5.88;;
75216;SDS011;63800;51.972;5.682;2023-06-01T06:16:45;12.18;;;6.05;;
75216;SDS011;63800;51.972;5.682;2023-06-01T06:19:10;11.10;;;6.03;;
75216;SDS011;63800;51.972;5.682;2023-06-01T06:21:37;11.30;;;6.32;;
75216;SDS011;63800;51.972;5.682;2023-06-01T06:24:02;9.98;;;6.05;;
75216;SDS011;63800;51.972;5.682;2023-06-01T06:26:28;11.52;;;6.43;;
75216;SDS011;63800;51.972;5.682;2023-06-01T06:28:54;13.35;;;6.75;;
75216;SDS011;63800;51.972;5.682;2023-06-01T06:31:20;11.70;;;5.50;;
75216;SDS011;63800;51.972;5.682;2023-06-01T06:33:46;12.82;;;6.22;;
75216;SDS011;63800;51.972;5.682;2023-06-01T06:36:12;11.10;;;5.97;;
75216;SDS011;63800;51.972;5.682;2023-06-01T06:38:37;9.77;;;5.60;;
75216;SDS011;63800;51.972;5.682;2023-06-01T06:41:03;11.20;;;5.82;;
75216;SDS011;63800;51.972;5.682;2023-06-01T06:43:28;11.50;;;6.05;;
75216;SDS011;63800;51.972;5.682;2023-06-01T06:45:54;11.43;;;6.28;;
75216;SDS011;63800;51.972;5.682;2023-06-01T06:48:19;12.18;;;6.10;;
75216;SDS011;63800;51.972;5.682;2023-06-01T06:50:45;13.10;;;5.95;;
75216;SDS011;63800;51.972;5.682;2023-06-01T06:53:11;12.02;;;6.53;;
75216;SDS011;63800;51.972;5.682;2023-06-01T06:55:36;11.98;;;6.00;;
75216;SDS011;63800;51.972;5.682;2023-06-01T06:58:02;13.80;;;5.70;;
75216;SDS011;63800;51.972;5.682;2023-06-01T07:00:27;12.90;;;6.35;;
75216;SDS011;63800;51.972;5.682;2023-06-01T07:02:53;9.93;;;5.53;;
75216;SDS011;63800;51.972;5.682;2023-06-01T07:05:20;14.60;;;6.10;;
75216;SDS011;63800;51.972;5.682;2023-06-01T07:07:46;12.15;;;6.18;;
75216;SDS011;63800;51.972;5.682;2023-06-01T07:10:11;11.60;;;5.80;;
75216;SDS011;63800;51.972;5.682;2023-06-01T07:12:37;10.65;;;5.82;;
75216;SDS011;63800;51.972;5.682;2023-06-01T07:15:03;12.50;;;5.90;;
75216;SDS011;63800;51.972;5.682;2023-06-01T07:17:29;13.05;;;6.68;;
75216;SDS011;63800;51.972;5.682;2023-06-01T07:19:54;10.57;;;6.05;;
75216;SDS011;63800;51.972;5.682;2023-06-01T07:22:19;10.95;;;5.70;;
75216;SDS011;63800;51.972;5.682;2023-06-01T07:24:46;9.60;;;5.55;;
75216;SDS011;63800;51.972;5.682;2023-06-01T07:27:12;9.73;;;5.80;;
75216;SDS011;63800;51.972;5.682;2023-06-01T07:29:38;8.50;;;5.30;;
75216;SDS011;63800;51.972;5.682;2023-06-01T07:32:05;11.93;;;6.13;;
75216;SDS011;63800;51.972;5.682;2023-06-01T07:34:31;11.00;;;6.05;;
75216;SDS011;63800;51.972;5.682;2023-06-01T07:36:58;13.52;;;6.32;;
75216;SDS011;63800;51.972;5.682;2023-06-01T07:39:24;12.65;;;6.75;;
75216;SDS011;63800;51.972;5.682;2023-06-01T07:41:50;14.63;;;7.00;;
75216;SDS011;63800;51.972;5.682;2023-06-01T07:44:18;12.60;;;6.13;;
75216;SDS011;63800;51.972;5.682;2023-06-01T07:46:45;12.77;;;6.28;;
75216;SDS011;63800;51.972;5.682;2023-06-01T07:49:11;11.20;;;6.25;;
75216;SDS011;63800;51.972;5.682;2023-06-01T07:51:38;12.32;;;5.75;;
75216;SDS011;63800;51.972;5.682;2023-06-01T07:54:05;11.68;;;6.40;;
75216;SDS011;63800;51.972;5.682;2023-06-01T07:56:30;12.40;;;6.40;;
75216;SDS011;63800;51.972;5.682;2023-06-01T07:58:56;12.85;;;6.53;;
75216;SDS011;63800;51.972;5.682;2023-06-01T08:01:21;13.05;;;6.88;;
75216;SDS011;63800;51.972;5.682;2023-06-01T08:03:47;12.10;;;6.13;;
75216;SDS011;63800;51.972;5.682;2023-06-01T08:06:12;11.70;;;6.40;;
75216;SDS011;63800;51.972;5.682;2023-06-01T08:08:40;11.60;;;5.82;;
75216;SDS011;63800;51.972;5.682;2023-06-01T08:11:05;11.73;;;5.88;;
75216;SDS011;63800;51.972;5.682;2023-06-01T08:13:32;11.98;;;6.68;;
75216;SDS011;63800;51.972;5.682;2023-06-01T08:16:00;14.23;;;7.20;;
75216;SDS011;63800;51.972;5.682;2023-06-01T08:18:25;15.20;;;7.10;;
75216;SDS011;63800;51.972;5.682;2023-06-01T08:20:51;11.00;;;6.18;;
75216;SDS011;63800;51.972;5.682;2023-06-01T08:23:16;11.05;;;6.22;;
75216;SDS011;63800;51.972;5.682;2023-06-01T08:25:45;12.32;;;6.40;;
75216;SDS011;63800;51.972;5.682;2023-06-01T08:28:10;11.48;;;6.57;;
75216;SDS011;63800;51.972;5.682;2023-06-01T08:30:36;11.60;;;6.78;;
75216;SDS011;63800;51.972;5.682;2023-06-01T08:33:01;12.70;;;6.60;;
75216;SDS011;63800;51.972;5.682;2023-06-01T08:35:27;10.98;;;6.03;;
75216;SDS011;63800;51.972;5.682;2023-06-01T08:37:53;12.80;;;6.35;;
75216;SDS011;63800;51.972;5.682;2023-06-01T08:40:19;10.60;;;6.28;;
75216;SDS011;63800;51.972;5.682;2023-06-01T08:45:11;11.23;;;6.18;;
75216;SDS011;63800;51.972;5.682;2023-06-01T08:47:37;9.85;;;5.38;;
75216;SDS011;63800;51.972;5.682;2023-06-01T08:50:03;11.27;;;6.22;;
75216;SDS011;63800;51.972;5.682;2023-06-01T08:52:29;10.18;;;5.55;;
75216;SDS011;63800;51.972;5.682;2023-06-01T08:55:01;7.75;;;5.32;;
75216;SDS011;63800;51.972;5.682;2023-06-01T08:57:28;10.80;;;5.50;;
75216;SDS011;63800;51.972;5.682;2023-06-01T08:59:57;11.55;;;5.72;;
75216;SDS011;63800;51.972;5.682;2023-06-01T09:02:24;9.30;;;5.20;;
75216;SDS011;63800;51.972;5.682;2023-06-01T09:04:50;9.60;;;5.18;;
75216;SDS011;63800;51.972;5.682;2023-06-01T09:07:17;12.55;;;6.00;;
75216;SDS011;63800;51.972;5.682;2023-06-01T09:09:43;11.85;;;5.85;;
75216;SDS011;63800;51.972;5.682;2023-06-01T09:12:21;9.55;;;5.65;;
75216;SDS011;63800;51.972;5.682;2023-06-01T09:14:49;11.82;;;5.63;;
75216;SDS011;63800;51.972;5.682;2023-06-01T09:17:20;10.73;;;5.57;;
75216;SDS011;63800;51.972;5.682;2023-06-01T09:19:47;10.45;;;5.70;;
75216;SDS011;63800;51.972;5.682;2023-06-01T09:22:13;9.65;;;5.40;;
75216;SDS011;63800;51.972;5.682;2023-06-01T09:24:39;9.93;;;5.80;;
75216;SDS011;63800;51.972;5.682;2023-06-01T09:27:06;11.85;;;6.30;;
75216;SDS011;63800;51.972;5.682;2023-06-01T09:29:31;8.77;;;5.22;;
75216;SDS011;63800;51.972;5.682;2023-06-01T09:31:57;9.32;;;5.38;;
75216;SDS011;63800;51.972;5.682;2023-06-01T09:34:25;10.43;;;5.40;;
75216;SDS011;63800;51.972;5.682;2023-06-01T09:36:51;8.20;;;5.50;;
75216;SDS011;63800;51.972;5.682;2023-06-01T09:39:19;8.90;;;5.28;;
75216;SDS011;63800;51.972;5.682;2023-06-01T09:41:52;9.95;;;5.25;;
75216;SDS011;63800;51.972;5.682;2023-06-01T09:44:32;8.63;;;5.18;;
75216;SDS011;63800;51.972;5.682;2023-06-01T09:47:07;9.55;;;5.18;;
75216;SDS011;63800;51.972;5.682;2023-06-01T09:52:10;9.93;;;5.68;;
75216;SDS011;63800;51.972;5.682;2023-06-01T09:57:10;9.27;;;5.32;;
75216;SDS011;63800;51.972;5.682;2023-06-01T09:59:40;8.82;;;5.07;;
75216;SDS011;63800;51.972;5.682;2023-06-01T10:02:14;8.55;;;5.32;;
75216;SDS011;63800;51.972;5.682;2023-06-01T10:04:50;11.20;;;5.65;;
75216;SDS011;63800;51.972;5.682;2023-06-01T10:07:18;10.40;;;5.22;;
75216;SDS011;63800;51.972;5.682;2023-06-01T10:09:46;10.00;;;6.00;;
75216;SDS011;63800;51.972;5.682;2023-06-01T10:12:15;8.57;;;5.22;;
75216;SDS011;63800;51.972;5.682;2023-06-01T10:14:40;8.18;;;4.93;;
75216;SDS011;63800;51.972;5.682;2023-06-01T10:17:06;9.98;;;5.53;;
75216;SDS011;63800;51.972;5.682;2023-06-01T10:19:32;11.68;;;6.03;;
75216;SDS011;63800;51.972;5.682;2023-06-01T10:21:58;9.18;;;5.80;;
75216;SDS011;63800;51.972;5.682;2023-06-01T10:24:23;8.77;;;5.30;;
75216;SDS011;63800;51.972;5.682;2023-06-01T10:29:26;8.38;;;4.75;;
75216;SDS011;63800;51.972;5.682;2023-06-01T10:31:54;8.38;;;5.20;;
75216;SDS011;63800;51.972;5.682;2023-06-01T10:34:35;10.07;;;5.13;;
75216;SDS011;63800;51.972;5.682;2023-06-01T10:39:38;10.40;;;5.78;;
75216;SDS011;63800;51.972;5.682;2023-06-01T10:47:04;10.13;;;4.93;;
75216;SDS011;63800;51.972;5.682;2023-06-01T10:50:06;10.52;;;5.18;;
75216;SDS011;63800;51.972;5.682;2023-06-01T10:52:28;6.63;;;5.05;;
75216;SDS011;63800;51.972;5.682;2023-06-01T10:57:36;8.52;;;5.45;;
75216;SDS011;63800;51.972;5.682;2023-06-01T11:02:46;9.07;;;5.32;;
75216;SDS011;63800;51.972;5.682;2023-06-01T11:11:06;8.43;;;4.60;;
75216;SDS011;63800;51.972;5.682;2023-06-01T11:13:32;9.70;;;5.05;;
75216;SDS011;63800;51.972;5.682;2023-06-01T11:21:23;9.30;;;6.28;;
75216;SDS011;63800;51.972;5.682;2023-06-01T11:23:53;8.52;;;5.25;;
75216;SDS011;63800;51.972;5.682;2023-06-01T11:26:21;9.60;;;5.45;;
75216;SDS011;63800;51.972;5.682;2023-06-01T11:28:50;11.45;;;4.93;;
75216;SDS011;63800;51.972;5.682;2023-06-01T11:31:18;8.38;;;5.25;;
75216;SDS011;63800;51.972;5.682;2023-06-01T11:33:51;9.05;;;5.10;;
75216;SDS011;63800;51.972;5.682;2023-06-01T11:36:21;9.93;;;5.78;;
75216;SDS011;63800;51.972;5.682;2023-06-01T11:38:49;9.07;;;5.50;;
75216;SDS011;63800;51.972;5.682;2023-06-01T11:41:16;11.88;;;5.65;;
75216;SDS011;63800;51.972;5.682;2023-06-01T11:43:41;9.93;;;6.28;;
75216;SDS011;63800;51.972;5.682;2023-06-01T11:46:07;10.20;;;6.22;;
75216;SDS011;63800;51.972;5.682;2023-06-01T11:48:34;9.73;;;6.20;;
75216;SDS011;63800;51.972;5.682;2023-06-01T11:51:00;11.25;;;6.93;;
75216;SDS011;63800;51.972;5.682;2023-06-01T11:53:28;12.65;;;7.28;;
75216;SDS011;63800;51.972;5.682;2023-06-01T11:55:56;11.52;;;7.18;;
75216;SDS011;63800;51.972;5.682;2023-06-01T11:58:22;11.55;;;7.05;;
75216;SDS011;63800;51.972;5.682;2023-06-01T12:00:52;14.93;;;7.43;;
75216;SDS011;63800;51.972;5.682;2023-06-01T12:03:18;12.50;;;7.93;;
75216;SDS011;63800;51.972;5.682;2023-06-01T12:05:43;11.63;;;7.32;;
75216;SDS011;63800;51.972;5.682;2023-06-01T12:08:22;12.35;;;7.30;;
75216;SDS011;63800;51.972;5.682;2023-06-01T12:10:50;11.05;;;6.95;;
75216;SDS011;63800;51.972;5.682;2023-06-01T12:13:17;11.25;;;6.47;;
75216;SDS011;63800;51.972;5.682;2023-06-01T12:15:44;11.57;;;6.50;;
75216;SDS011;63800;51.972;5.682;2023-06-01T12:18:11;12.40;;;6.65;;
75216;SDS011;63800;51.972;5.682;2023-06-01T12:20:40;11.68;;;6.97;;
75216;SDS011;63800;51.972;5.682;2023-06-01T12:25:47;10.10;;;6.82;;
75216;SDS011;63800;51.972;5.682;2023-06-01T12:28:16;10.10;;;6.05;;
75216;SDS011;63800;51.972;5.682;2023-06-01T12:30:42;9.75;;;5.55;;
75216;SDS011;63800;51.972;5.682;2023-06-01T12:33:08;9.15;;;5.55;;
75216;SDS011;63800;51.972;5.682;2023-06-01T12:35:48;11.32;;;5.78;;
75216;SDS011;63800;51.972;5.682;2023-06-01T12:38:14;7.88;;;4.80;;
75216;SDS011;63800;51.972;5.682;2023-06-01T12:40:40;8.95;;;5.63;;
75216;SDS011;63800;51.972;5.682;2023-06-01T12:43:17;9.38;;;6.28;;
75216;SDS011;63800;51.972;5.682;2023-06-01T12:45:46;8.65;;;5.10;;
75216;SDS011;63800;51.972;5.682;2023-06-01T12:48:30;13.02;;;5.35;;
75216;SDS011;63800;51.972;5.682;2023-06-01T12:51:02;8.77;;;5.30;;
75216;SDS011;63800;51.972;5.682;2023-06-01T12:53:28;13.88;;;6.55;;
75216;SDS011;63800;51.972;5.682;2023-06-01T12:55:54;10.05;;;5.28;;
75216;SDS011;63800;51.972;5.682;2023-06-01T12:58:20;7.70;;;4.78;;
75216;SDS011;63800;51.972;5.682;2023-06-01T13:00:46;10.70;;;5.40;;
75216;SDS011;63800;51.972;5.682;2023-06-01T13:03:11;8.90;;;5.53;;
75216;SDS011;63800;51.972;5.682;2023-06-01T13:05:40;9.27;;;6.03;;
75216;SDS011;63800;51.972;5.682;2023-06-01T13:08:07;9.68;;;5.78;;
75216;SDS011;63800;51.972;5.682;2023-06-01T13:10:33;11.20;;;6.63;;
75216;SDS011;63800;51.972;5.682;2023-06-01T13:12:58;8.75;;;5.70;;
75216;SDS011;63800;51.972;5.682;2023-06-01T13:15:24;6.05;;;5.20;;
75216;SDS011;63800;51.972;5.682;2023-06-01T13:17:50;9.32;;;5.90;;
75216;SDS011;63800;51.972;5.682;2023-06-01T13:20:16;8.55;;;5.88;;
75216;SDS011;63800;51.972;5.682;2023-06-01T13:22:42;9.13;;;5.63;;
75216;SDS011;63800;51.972;5.682;2023-06-01T13:25:08;7.68;;;5.22;;
75216;SDS011;63800;51.972;5.682;2023-06-01T13:27:33;7.85;;;5.25;;
75216;SDS011;63800;51.972;5.682;2023-06-01T13:29:59;7.68;;;5.35;;
75216;SDS011;63800;51.972;5.682;2023-06-01T13:32:26;7.55;;;5.35;;
75216;SDS011;63800;51.972;5.682;2023-06-01T13:34:51;7.18;;;4.72;;
75216;SDS011;63800;51.972;5.682;2023-06-01T13:37:17;6.03;;;4.97;;
75216;SDS011;63800;51.972;5.682;2023-06-01T13:39:43;7.50;;;5.20;;
75216;SDS011;63800;51.972;5.682;2023-06-01T13:42:08;7.35;;;5.55;;
75216;SDS011;63800;51.972;5.682;2023-06-01T13:44:34;7.18;;;5.82;;
75216;SDS011;63800;51.972;5.682;2023-06-01T13:46:59;9.30;;;5.30;;
75216;SDS011;63800;51.972;5.682;2023-06-01T13:49:25;6.97;;;4.82;;
75216;SDS011;63800;51.972;5.682;2023-06-01T13:51:51;7.32;;;4.93;;
75216;SDS011;63800;51.972;5.682;2023-06-01T13:54:17;5.43;;;4.78;;
75216;SDS011;63800;51.972;5.682;2023-06-01T13:56:43;6.50;;;3.92;;
75216;SDS011;63800;51.972;5.682;2023-06-01T13:59:08;6.80;;;4.47;;
75216;SDS011;63800;51.972;5.682;2023-06-01T14:01:34;7.80;;;4.65;;
75216;SDS011;63800;51.972;5.682;2023-06-01T14:04:00;7.10;;;5.10;;
75216;SDS011;63800;51.972;5.682;2023-06-01T14:06:25;7.25;;;4.68;;
75216;SDS011;63800;51.972;5.682;2023-06-01T14:08:51;7.50;;;4.50;;
75216;SDS011;63800;51.972;5.682;2023-06-01T14:11:16;6.20;;;3.83;;
75216;SDS011;63800;51.972;5.682;2023-06-01T14:13:42;8.27;;;4.40;;
75216;SDS011;63800;51.972;5.682;2023-06-01T14:16:07;7.03;;;4.40;;
75216;SDS011;63800;51.972;5.682;2023-06-01T14:18:33;6.07;;;4.65;;
75216;SDS011;63800;51.972;5.682;2023-06-01T14:20:58;7.70;;;4.55;;
75216;SDS011;63800;51.972;5.682;2023-06-01T14:23:25;8.90;;;4.43;;
75216;SDS011;63800;51.972;5.682;2023-06-01T14:25:50;6.47;;;4.50;;
75216;SDS011;63800;51.972;5.682;2023-06-01T14:28:16;7.82;;;4.85;;
75216;SDS011;63800;51.972;5.682;2023-06-01T14:30:41;8.00;;;4.45;;
75216;SDS011;63800;51.972;5.682;2023-06-01T14:33:06;9.68;;;4.93;;
75216;SDS011;63800;51.972;5.682;2023-06-01T14:35:32;7.50;;;4.45;;
75216;SDS011;63800;51.972;5.682;2023-06-01T14:37:58;4.85;;;3.83;;
75216;SDS011;63800;51.972;5.682;2023-06-01T14:40:24;6.03;;;4.15;;
75216;SDS011;63800;51.972;5.682;2023-06-01T14:42:49;6.50;;;4.57;;
75216;SDS011;63800;51.972;5.682;2023-06-01T14:45:15;6.85;;;4.07;;
75216;SDS011;63800;51.972;5.682;2023-06-01T14:47:41;5.57;;;4.15;;
75216;SDS011;63800;51.972;5.682;2023-06-01T14:50:07;8.65;;;4.18;;
75216;SDS011;63800;51.972;5.682;2023-06-01T14:52:33;6.50;;;4.07;;
75216;SDS011;63800;51.972;5.682;2023-06-01T14:54:59;5.40;;;3.42;;
75216;SDS011;63800;51.972;5.682;2023-06-01T14:57:24;8.15;;;3.85;;
75216;SDS011;63800;51.972;5.682;2023-06-01T14:59:50;5.50;;;3.80;;
75216;SDS011;63800;51.972;5.682;2023-06-01T15:02:15;6.70;;;3.53;;
75216;SDS011;63800;51.972;5.682;2023-06-01T15:04:40;5.53;;;3.97;;
75216;SDS011;63800;51.972;5.682;2023-06-01T15:07:06;8.95;;;4.10;;
75216;SDS011;63800;51.972;5.682;2023-06-01T15:09:31;5.00;;;3.40;;
75216;SDS011;63800;51.972;5.682;2023-06-01T15:11:57;5.28;;;3.40;;
75216;SDS011;63800;51.972;5.682;2023-06-01T15:14:23;7.68;;;3.70;;
75216;SDS011;63800;51.972;5.682;2023-06-01T15:16:49;5.80;;;3.38;;
75216;SDS011;63800;51.972;5.682;2023-06-01T15:19:14;5.90;;;3.80;;
75216;SDS011;63800;51.972;5.682;2023-06-01T15:21:40;5.50;;;3.42;;
75216;SDS011;63800;51.972;5.682;2023-06-01T15:24:05;5.88;;;3.58;;
75216;SDS011;63800;51.972;5.682;2023-06-01T15:26:31;4.63;;;3.08;;
75216;SDS011;63800;51.972;5.682;2023-06-01T15:28:56;3.72;;;3.13;;
75216;SDS011;63800;51.972;5.682;2023-06-01T15:31:22;5.45;;;3.22;;
75216;SDS011;63800;51.972;5.682;2023-06-01T15:33:47;5.97;;;3.13;;